createdAt,value
2019-05-09T00:00:29.286Z,4.60
2019-05-09T00:00:53.931Z,3.40
2019-05-09T00:01:18.526Z,4.60
2019-05-09T00:01:43.907Z,3.00
2019-05-09T00:02:10.289Z,3.60
2019-05-09T00:02:36.511Z,3.40
2019-05-09T00:03:03.419Z,4.00
2019-05-09T00:03:30.285Z,4.00
2019-05-09T00:03:54.442Z,4.00
2019-05-09T00:04:19.109Z,4.00
2019-05-09T00:04:44.116Z,5.00
2019-05-09T00:05:09.049Z,4.00
2019-05-09T00:05:33.713Z,3.00
2019-05-09T00:05:58.327Z,4.20
2019-05-09T00:06:23.951Z,5.00
2019-05-09T00:06:48.679Z,4.00
2019-05-09T00:07:14.150Z,4.00
2019-05-09T00:07:38.799Z,4.00
2019-05-09T00:08:03.665Z,3.60
2019-05-09T00:08:28.437Z,4.00
2019-05-09T00:08:53.369Z,4.00
2019-05-09T00:09:18.193Z,5.00
2019-05-09T00:09:44.084Z,4.00
2019-05-09T00:10:10.063Z,3.20
2019-05-09T00:10:39.564Z,4.00
2019-05-09T00:11:01.048Z,4.00
2019-05-09T00:11:25.681Z,3.60
2019-05-09T00:11:50.261Z,3.00
2019-05-09T00:12:14.900Z,4.00
2019-05-09T00:12:39.481Z,3.80
2019-05-09T00:13:04.293Z,3.60
2019-05-09T00:13:29.117Z,3.00
2019-05-09T00:13:53.960Z,5.00
2019-05-09T00:14:18.837Z,5.00
2019-05-09T00:14:43.531Z,4.00
2019-05-09T00:15:08.243Z,4.00
2019-05-09T00:15:33.362Z,4.00
2019-05-09T00:15:58.120Z,3.00
2019-05-09T00:16:23.517Z,4.00
2019-05-09T00:16:48.506Z,3.40
2019-05-09T00:17:14.297Z,3.00
2019-05-09T00:17:38.855Z,4.00
2019-05-09T00:18:04.010Z,4.00
2019-05-09T00:18:28.750Z,4.00
2019-05-09T00:18:54.247Z,3.00
2019-05-09T00:19:19.047Z,4.00
2019-05-09T00:19:43.984Z,4.00
2019-05-09T00:20:10.790Z,3.40
2019-05-09T00:20:37.070Z,4.00
2019-05-09T00:21:23.907Z,4.00
2019-05-09T00:21:50.224Z,3.00
2019-05-09T00:22:14.928Z,3.00
2019-05-09T00:22:39.507Z,3.00
2019-05-09T00:23:04.251Z,6.00
2019-05-09T00:23:28.862Z,4.00
2019-05-09T00:23:54.123Z,4.00
2019-05-09T00:24:18.929Z,3.00
2019-05-09T00:24:44.701Z,4.00
2019-05-09T00:25:09.539Z,3.20
2019-05-09T00:25:34.169Z,4.00
2019-05-09T00:25:58.798Z,4.00
2019-05-09T00:26:23.669Z,3.00
2019-05-09T00:26:48.498Z,3.00
2019-05-09T00:27:14.333Z,3.00
2019-05-09T00:27:39.053Z,4.40
2019-05-09T00:28:04.279Z,4.00
2019-05-09T00:28:33.767Z,4.00
2019-05-09T00:29:17.134Z,3.20
2019-05-09T00:29:46.119Z,4.75
2019-05-09T00:30:10.896Z,4.00
2019-05-09T00:30:55.515Z,3.80
2019-05-09T00:31:23.793Z,5.00
2019-05-09T00:32:03.487Z,5.20
2019-05-09T00:32:34.050Z,4.00
2019-05-09T00:32:58.861Z,3.40
2019-05-09T00:33:30.902Z,4.00
2019-05-09T00:33:57.167Z,4.00
2019-05-09T00:34:29.454Z,4.00
2019-05-09T00:34:55.792Z,4.20
2019-05-09T00:35:24.778Z,4.75
2019-05-09T00:35:49.429Z,4.00
2019-05-09T00:36:14.156Z,4.40
2019-05-09T00:36:38.748Z,5.00
2019-05-09T00:37:03.346Z,4.00
2019-05-09T00:37:45.587Z,4.00
2019-05-09T00:38:10.187Z,5.00
2019-05-09T00:38:46.954Z,4.20
2019-05-09T00:39:13.409Z,4.00
2019-05-09T00:39:37.908Z,4.00
2019-05-09T00:40:04.060Z,3.60
2019-05-09T00:40:28.841Z,4.00
2019-05-09T00:40:58.665Z,4.00
2019-05-09T00:41:19.790Z,4.80
2019-05-09T00:41:44.408Z,4.00
2019-05-09T00:42:09.041Z,4.00
2019-05-09T00:42:33.754Z,4.60
2019-05-09T00:42:58.368Z,5.00
2019-05-09T00:43:23.807Z,4.00
2019-05-09T00:43:56.172Z,4.00
2019-05-09T00:44:23.249Z,4.00
2019-05-09T00:44:49.546Z,4.00
2019-05-09T00:45:15.801Z,3.60
2019-05-09T00:45:58.210Z,4.00
2019-05-09T00:46:24.511Z,4.80
2019-05-09T00:46:53.647Z,3.80
2019-05-09T00:47:19.893Z,4.00
2019-05-09T00:47:44.546Z,4.00
2019-05-09T00:48:09.392Z,4.80
2019-05-09T00:48:53.914Z,3.40
2019-05-09T00:49:20.165Z,4.00
2019-05-09T00:49:44.784Z,3.00
2019-05-09T00:50:09.413Z,4.00
2019-05-09T00:50:34.246Z,4.00
2019-05-09T00:50:58.954Z,3.00
2019-05-09T00:51:23.598Z,4.00
2019-05-09T00:51:48.172Z,3.40
2019-05-09T00:52:14.119Z,4.00
2019-05-09T00:52:38.962Z,4.00
2019-05-09T00:53:03.582Z,4.00
2019-05-09T00:53:28.192Z,5.00
2019-05-09T00:53:53.709Z,4.00
2019-05-09T00:54:18.423Z,4.00
2019-05-09T00:54:43.823Z,5.00
2019-05-09T00:55:08.535Z,4.20
2019-05-09T00:55:33.381Z,4.00
2019-05-09T00:55:58.042Z,5.00
2019-05-09T00:56:23.975Z,4.00
2019-05-09T00:56:48.928Z,3.40
2019-05-09T00:57:15.854Z,4.00
2019-05-09T00:57:40.518Z,4.00
2019-05-09T00:58:05.161Z,3.40
2019-05-09T00:58:29.799Z,3.00
2019-05-09T00:58:54.420Z,4.00
2019-05-09T00:59:19.044Z,4.00
2019-05-09T00:59:44.649Z,4.00
2019-05-09T01:00:14.671Z,3.00
2019-05-09T01:00:38.175Z,4.00
2019-05-09T01:01:04.343Z,3.00
2019-05-09T01:01:29.332Z,4.50
2019-05-09T01:01:54.419Z,5.00
2019-05-09T01:02:19.264Z,4.50
2019-05-09T01:02:43.878Z,5.00
2019-05-09T01:03:08.515Z,5.00
2019-05-09T01:03:33.964Z,3.25
2019-05-09T01:03:58.844Z,4.00
2019-05-09T01:04:24.268Z,5.00
2019-05-09T01:04:48.926Z,4.60
2019-05-09T01:05:14.458Z,4.00
2019-05-09T01:05:39.064Z,4.00
2019-05-09T01:06:04.501Z,5.00
2019-05-09T01:06:29.720Z,4.00
2019-05-09T01:06:54.421Z,5.00
2019-05-09T01:07:19.068Z,4.00
2019-05-09T01:07:43.710Z,4.80
2019-05-09T01:08:08.337Z,4.00
2019-05-09T01:08:33.613Z,3.20
2019-05-09T01:08:58.844Z,3.00
2019-05-09T01:09:24.183Z,4.00
2019-05-09T01:09:49.112Z,4.00
2019-05-09T01:10:14.428Z,4.00
2019-05-09T01:10:39.012Z,4.00
2019-05-09T01:11:11.378Z,4.00
2019-05-09T01:11:30.087Z,5.00
2019-05-09T01:11:54.701Z,4.00
2019-05-09T01:12:19.326Z,4.00
2019-05-09T01:12:43.950Z,4.60
2019-05-09T01:13:08.580Z,4.00
2019-05-09T01:13:34.322Z,4.00
2019-05-09T01:13:59.127Z,4.20
2019-05-09T01:14:23.871Z,4.60
2019-05-09T01:14:48.981Z,4.00
2019-05-09T01:15:14.893Z,4.50
2019-05-09T01:15:39.527Z,4.40
2019-05-09T01:16:04.746Z,4.00
2019-05-09T01:16:29.629Z,4.00
2019-05-09T01:16:54.261Z,4.40
2019-05-09T01:17:19.131Z,4.00
2019-05-09T01:17:44.228Z,4.00
2019-05-09T01:18:08.897Z,5.60
2019-05-09T01:18:34.494Z,3.60
2019-05-09T01:18:59.130Z,5.00
2019-05-09T01:19:23.785Z,4.00
2019-05-09T01:19:48.395Z,4.80
2019-05-09T01:20:14.728Z,4.00
2019-05-09T01:20:39.411Z,4.00
2019-05-09T01:21:04.846Z,6.00
2019-05-09T01:21:29.533Z,4.00
2019-05-09T01:21:54.362Z,4.00
2019-05-09T01:22:18.991Z,4.00
2019-05-09T01:22:43.744Z,3.00
2019-05-09T01:23:08.447Z,5.00
2019-05-09T01:23:34.360Z,5.00
2019-05-09T01:23:59.362Z,3.80
2019-05-09T01:24:23.979Z,5.00
2019-05-09T01:24:48.591Z,4.60
2019-05-09T01:25:13.492Z,4.50
2019-05-09T01:25:38.263Z,5.00
2019-05-09T01:26:03.818Z,5.00
2019-05-09T01:26:28.771Z,6.00
2019-05-09T01:26:54.181Z,4.40
2019-05-09T01:27:19.157Z,6.00
2019-05-09T01:27:43.754Z,5.00
2019-05-09T01:28:08.409Z,5.00
2019-05-09T01:28:33.953Z,4.00
2019-05-09T01:28:58.806Z,4.00
2019-05-09T01:29:23.554Z,6.00
2019-05-09T01:29:48.388Z,4.40
2019-05-09T01:30:13.646Z,4.00
2019-05-09T01:30:38.306Z,4.00
2019-05-09T01:31:04.138Z,5.00
2019-05-09T01:31:29.060Z,4.00
2019-05-09T01:31:55.285Z,4.40
2019-05-09T01:32:37.111Z,5.00
2019-05-09T01:33:06.183Z,4.00
2019-05-09T01:33:33.301Z,5.00
2019-05-09T01:34:13.343Z,4.50
2019-05-09T01:34:38.080Z,6.00
2019-05-09T01:35:03.881Z,4.60
2019-05-09T01:35:28.617Z,4.00
2019-05-09T01:35:54.069Z,4.00
2019-05-09T01:36:18.762Z,5.00
2019-05-09T01:37:03.437Z,4.00
2019-05-09T01:37:27.708Z,3.00
2019-05-09T01:37:53.909Z,3.60
2019-05-09T01:38:18.790Z,4.20
2019-05-09T01:38:43.486Z,5.00
2019-05-09T01:39:08.078Z,3.80
2019-05-09T01:39:33.850Z,5.00
2019-05-09T01:39:58.563Z,5.00
2019-05-09T01:40:23.890Z,5.20
2019-05-09T01:40:48.637Z,6.00
2019-05-09T01:41:27.150Z,6.40
2019-05-09T01:41:39.551Z,5.40
2019-05-09T01:42:04.274Z,6.00
2019-05-09T01:42:28.894Z,6.00
2019-05-09T01:42:53.858Z,6.00
2019-05-09T01:43:18.643Z,5.80
2019-05-09T01:43:44.291Z,5.00
2019-05-09T01:44:09.714Z,5.00
2019-05-09T01:44:34.312Z,4.00
2019-05-09T01:44:59.005Z,5.00
2019-05-09T01:45:25.251Z,6.00
2019-05-09T01:45:49.887Z,7.00
2019-05-09T01:46:14.628Z,6.00
2019-05-09T01:46:40.156Z,6.00
2019-05-09T01:47:04.862Z,5.60
2019-05-09T01:47:29.481Z,3.00
2019-05-09T01:47:54.045Z,5.00
2019-05-09T01:48:18.763Z,5.00
2019-05-09T01:48:43.389Z,7.00
2019-05-09T01:49:08.177Z,6.80
2019-05-09T01:49:34.199Z,7.00
2019-05-09T01:49:59.235Z,6.00
2019-05-09T01:50:23.861Z,5.00
2019-05-09T01:50:48.465Z,4.00
2019-05-09T01:51:14.473Z,5.60
2019-05-09T01:51:39.187Z,8.00
2019-05-09T01:52:04.265Z,5.20
2019-05-09T01:52:28.872Z,5.50
2019-05-09T01:52:53.506Z,6.00
2019-05-09T01:53:19.749Z,7.00
2019-05-09T01:53:46.018Z,5.60
2019-05-09T01:54:10.633Z,6.40
2019-05-09T01:54:36.284Z,4.00
2019-05-09T01:55:00.975Z,4.00
2019-05-09T01:55:43.779Z,4.00
2019-05-09T01:56:08.395Z,6.00
2019-05-09T01:56:33.911Z,8.00
2019-05-09T01:56:58.622Z,6.40
2019-05-09T01:57:23.378Z,5.00
2019-05-09T01:57:48.128Z,4.00
2019-05-09T01:58:13.862Z,4.00
2019-05-09T01:58:38.662Z,6.00
2019-05-09T01:59:03.486Z,4.20
2019-05-09T01:59:28.093Z,5.00
2019-05-09T01:59:53.225Z,5.00
2019-05-09T02:00:18.121Z,6.40
2019-05-09T02:00:43.600Z,5.00
2019-05-09T02:01:09.205Z,3.40
2019-05-09T02:01:34.467Z,4.00
2019-05-09T02:01:59.192Z,4.20
2019-05-09T02:02:24.023Z,5.00
2019-05-09T02:02:48.677Z,4.20
2019-05-09T02:03:13.989Z,5.40
2019-05-09T02:03:38.775Z,6.00
2019-05-09T02:04:04.050Z,4.00
2019-05-09T02:04:28.893Z,5.00
2019-05-09T02:04:53.517Z,4.80
2019-05-09T02:05:18.182Z,5.50
2019-05-09T02:05:43.490Z,5.00
2019-05-09T02:06:08.203Z,5.00
2019-05-09T02:06:33.353Z,4.00
2019-05-09T02:06:58.057Z,5.80
2019-05-09T02:07:23.747Z,4.25
2019-05-09T02:07:48.448Z,4.00
2019-05-09T02:08:14.241Z,4.00
2019-05-09T02:08:39.147Z,3.00
2019-05-09T02:09:05.413Z,4.00
2019-05-09T02:09:30.017Z,4.75
2019-05-09T02:09:54.741Z,5.60
2019-05-09T02:10:19.379Z,4.00
2019-05-09T02:10:44.249Z,4.00
2019-05-09T02:11:08.974Z,4.80
2019-05-09T02:11:42.352Z,6.00
2019-05-09T02:11:59.946Z,4.40
2019-05-09T02:12:24.689Z,5.00
2019-05-09T02:12:49.388Z,5.00
2019-05-09T02:13:14.594Z,4.50
2019-05-09T02:13:39.193Z,3.00
2019-05-09T02:14:04.215Z,3.00
2019-05-09T02:14:36.436Z,4.00
2019-05-09T02:15:03.915Z,5.00
2019-05-09T02:15:47.014Z,4.00
2019-05-09T02:16:29.707Z,4.00
2019-05-09T02:17:03.244Z,5.00
2019-05-09T02:17:29.627Z,6.00
2019-05-09T02:18:04.263Z,5.00
2019-05-09T02:18:26.873Z,4.00
2019-05-09T02:18:53.502Z,5.60
2019-05-09T02:19:24.078Z,5.00
2019-05-09T02:19:48.908Z,3.80
2019-05-09T02:20:14.691Z,3.86
2019-05-09T02:20:39.283Z,3.60
2019-05-09T02:21:04.185Z,3.00
2019-05-09T02:21:28.835Z,4.00
2019-05-09T02:21:53.418Z,5.80
2019-05-09T02:22:34.462Z,4.00
2019-05-09T02:22:59.549Z,4.00
2019-05-09T02:23:24.154Z,4.25
2019-05-09T02:23:48.753Z,4.00
2019-05-09T02:24:14.204Z,3.40
2019-05-09T02:24:40.492Z,4.00
2019-05-09T02:25:09.515Z,4.00
2019-05-09T02:25:34.103Z,4.00
2019-05-09T02:25:58.836Z,5.75
2019-05-09T02:26:24.035Z,4.00
2019-05-09T02:26:48.865Z,4.00
2019-05-09T02:27:14.628Z,4.17
2019-05-09T02:27:39.308Z,4.00
2019-05-09T02:28:03.981Z,3.00
2019-05-09T02:28:29.382Z,3.00
2019-05-09T02:28:54.042Z,3.00
2019-05-09T02:29:18.624Z,5.00
2019-05-09T02:29:43.988Z,3.40
2019-05-09T02:30:11.706Z,4.00
2019-05-09T02:30:37.024Z,5.00
2019-05-09T02:31:05.066Z,4.00
2019-05-09T02:31:28.030Z,4.00
2019-05-09T02:31:54.670Z,4.00
2019-05-09T02:32:19.046Z,4.00
2019-05-09T02:32:45.087Z,4.00
2019-05-09T02:33:10.053Z,4.00
2019-05-09T02:33:35.037Z,4.00
2019-05-09T02:33:59.810Z,3.00
2019-05-09T02:34:25.073Z,3.00
2019-05-09T02:34:49.801Z,3.80
2019-05-09T02:35:14.983Z,5.40
2019-05-09T02:35:50.972Z,4.00
2019-05-09T02:36:05.893Z,5.00
2019-05-09T02:36:30.540Z,6.00
2019-05-09T02:36:58.425Z,4.00
2019-05-09T02:37:21.494Z,3.00
2019-05-09T02:37:49.575Z,5.00
2019-05-09T02:38:12.463Z,5.00
2019-05-09T02:38:39.229Z,4.00
2019-05-09T02:39:03.641Z,4.00
2019-05-09T02:39:29.395Z,5.00
2019-05-09T02:39:54.238Z,5.00
2019-05-09T02:40:19.029Z,4.00
2019-05-09T02:40:43.765Z,4.00
2019-05-09T02:41:08.720Z,3.00
2019-05-09T02:41:33.622Z,4.80
2019-05-09T02:42:08.451Z,5.00
2019-05-09T02:42:28.231Z,2.25
2019-05-09T02:42:52.963Z,4.00
2019-05-09T02:43:18.666Z,2.00
2019-05-09T02:43:43.509Z,4.00
2019-05-09T02:44:09.290Z,5.00
2019-05-09T02:44:34.251Z,3.00
2019-05-09T02:44:59.547Z,4.00
2019-05-09T02:45:28.415Z,4.00
2019-05-09T02:45:59.395Z,4.00
2019-05-09T02:46:30.697Z,4.00
2019-05-09T02:47:02.945Z,4.00
2019-05-09T02:47:28.963Z,4.00
2019-05-09T02:47:53.894Z,4.80
2019-05-09T02:48:18.772Z,4.50
2019-05-09T02:48:43.442Z,3.00
2019-05-09T02:49:09.022Z,4.00
2019-05-09T02:49:33.822Z,4.00
2019-05-09T02:49:59.140Z,4.00
2019-05-09T02:50:23.961Z,4.00
2019-05-09T02:50:48.808Z,4.00
2019-05-09T02:51:13.556Z,4.00
2019-05-09T02:51:38.874Z,4.00
2019-05-09T02:52:03.736Z,4.00
2019-05-09T02:52:28.948Z,4.00
2019-05-09T02:52:53.601Z,4.60
2019-05-09T02:53:19.075Z,5.00
2019-05-09T02:53:43.890Z,4.00
2019-05-09T02:54:09.977Z,4.00
2019-05-09T02:54:34.813Z,4.00
2019-05-09T02:54:59.455Z,5.00
2019-05-09T02:55:24.100Z,5.00
2019-05-09T02:55:49.652Z,4.00
2019-05-09T02:56:18.507Z,5.00
2019-05-09T02:56:41.641Z,4.00
2019-05-09T02:57:09.275Z,4.40
2019-05-09T02:57:32.645Z,5.00
2019-05-09T02:57:59.236Z,5.00
2019-05-09T02:58:28.131Z,4.00
2019-05-09T02:59:05.560Z,4.00
2019-05-09T02:59:34.934Z,4.00
2019-05-09T03:00:08.656Z,3.00
2019-05-09T03:00:44.216Z,4.00
2019-05-09T03:01:10.451Z,4.00
2019-05-09T03:01:45.587Z,5.00
2019-05-09T03:02:28.918Z,4.00
2019-05-09T03:02:55.365Z,3.00
2019-05-09T03:03:24.121Z,3.00
2019-05-09T03:03:48.781Z,3.00
2019-05-09T03:04:13.983Z,3.00
2019-05-09T03:04:39.204Z,3.00
2019-05-09T03:05:04.654Z,4.00
2019-05-09T03:05:29.875Z,5.00
2019-05-09T03:05:54.729Z,4.00
2019-05-09T03:06:19.822Z,4.00
2019-05-09T03:06:44.560Z,3.00
2019-05-09T03:07:09.861Z,3.40
2019-05-09T03:07:50.007Z,4.00
2019-05-09T03:08:14.639Z,3.60
2019-05-09T03:08:39.206Z,4.00
2019-05-09T03:09:05.051Z,4.00
2019-05-09T03:09:29.736Z,4.00
2019-05-09T03:09:54.360Z,4.00
2019-05-09T03:10:22.301Z,3.75
2019-05-09T03:10:48.943Z,4.40
2019-05-09T03:11:13.931Z,3.67
2019-05-09T03:11:39.020Z,4.00
2019-05-09T03:12:20.993Z,4.00
2019-05-09T03:12:35.430Z,3.00
2019-05-09T03:12:59.216Z,5.00
2019-05-09T03:13:22.752Z,3.00
2019-05-09T03:13:49.593Z,3.60
2019-05-09T03:14:13.933Z,3.00
2019-05-09T03:14:38.707Z,3.80
2019-05-09T03:15:03.970Z,3.00
2019-05-09T03:15:29.356Z,3.40
2019-05-09T03:15:58.584Z,4.00
2019-05-09T03:16:22.267Z,3.25
2019-05-09T03:16:49.127Z,4.00
2019-05-09T03:17:13.899Z,3.00
2019-05-09T03:17:38.722Z,4.00
2019-05-09T03:18:03.522Z,4.00
2019-05-09T03:18:28.713Z,3.75
2019-05-09T03:18:53.409Z,4.00
2019-05-09T03:19:19.360Z,3.00
2019-05-09T03:19:44.538Z,4.00
2019-05-09T03:20:10.838Z,4.00
2019-05-09T03:20:49.502Z,4.00
2019-05-09T03:21:19.309Z,4.00
2019-05-09T03:21:45.712Z,5.00
2019-05-09T03:22:12.000Z,4.00
2019-05-09T03:22:39.445Z,3.00
2019-05-09T03:23:02.991Z,3.00
2019-05-09T03:23:28.593Z,3.00
2019-05-09T03:23:53.507Z,4.00
2019-05-09T03:24:18.611Z,4.00
2019-05-09T03:24:43.494Z,4.60
2019-05-09T03:25:08.974Z,5.60
2019-05-09T03:25:34.008Z,3.00
2019-05-09T03:25:59.104Z,4.00
2019-05-09T03:26:25.603Z,4.00
2019-05-09T03:26:54.603Z,4.00
2019-05-09T03:27:28.762Z,4.00
2019-05-09T03:28:00.403Z,3.00
2019-05-09T03:28:44.913Z,3.00
2019-05-09T03:29:19.957Z,3.50
2019-05-09T03:29:48.964Z,3.00
2019-05-09T03:30:14.178Z,2.75
2019-05-09T03:30:50.225Z,3.00
2019-05-09T03:31:19.708Z,5.00
2019-05-09T03:31:43.526Z,3.00
2019-05-09T03:32:09.420Z,3.50
2019-05-09T03:32:34.194Z,3.00
2019-05-09T03:32:59.602Z,2.00
2019-05-09T03:33:24.598Z,3.00
2019-05-09T03:33:50.058Z,2.60
2019-05-09T03:34:15.120Z,3.00
2019-05-09T03:34:39.710Z,3.80
2019-05-09T03:35:05.776Z,3.00
2019-05-09T03:35:30.411Z,3.00
2019-05-09T03:35:57.296Z,3.00
2019-05-09T03:36:21.366Z,3.00
2019-05-09T03:36:47.673Z,4.00
2019-05-09T03:37:12.403Z,3.00
2019-05-09T03:37:37.826Z,3.00
2019-05-09T03:38:07.860Z,5.00
2019-05-09T03:38:32.068Z,3.00
2019-05-09T03:38:57.869Z,3.00
2019-05-09T03:39:22.598Z,3.00
2019-05-09T03:39:47.792Z,1.80
2019-05-09T03:40:12.493Z,2.00
2019-05-09T03:40:37.900Z,3.00
2019-05-09T03:41:02.600Z,4.00
2019-05-09T03:41:28.231Z,2.00
2019-05-09T03:41:53.060Z,3.00
2019-05-09T03:42:21.388Z,3.00
2019-05-09T03:42:44.093Z,3.40
2019-05-09T03:43:08.675Z,5.00
2019-05-09T03:43:33.309Z,3.00
2019-05-09T03:43:58.561Z,3.00
2019-05-09T03:44:23.399Z,3.00
2019-05-09T03:44:48.095Z,3.00
2019-05-09T03:45:14.363Z,4.00
2019-05-09T03:45:40.598Z,3.80
2019-05-09T03:46:09.652Z,3.00
2019-05-09T03:46:38.268Z,3.00
2019-05-09T03:47:03.840Z,3.00
2019-05-09T03:47:30.120Z,3.00
2019-05-09T03:47:58.272Z,3.00
2019-05-09T03:48:28.378Z,2.80
2019-05-09T03:48:54.982Z,4.00
2019-05-09T03:49:21.277Z,3.00
2019-05-09T03:49:47.697Z,3.00
2019-05-09T03:50:14.168Z,3.00
2019-05-09T03:50:38.855Z,4.00
2019-05-09T03:51:03.475Z,4.00
2019-05-09T03:51:28.093Z,4.00
2019-05-09T03:51:52.729Z,3.00
2019-05-09T03:52:17.819Z,4.00
2019-05-09T03:52:42.457Z,3.00
2019-05-09T03:53:08.394Z,2.00
2019-05-09T03:53:33.145Z,3.00
2019-05-09T03:53:57.792Z,3.00
2019-05-09T03:54:22.393Z,3.00
2019-05-09T03:54:47.705Z,4.00
2019-05-09T03:55:14.080Z,3.00
2019-05-09T03:55:38.727Z,2.00
2019-05-09T03:56:04.984Z,4.00
2019-05-09T03:56:34.251Z,4.00
2019-05-09T03:57:00.477Z,4.00
2019-05-09T03:57:28.309Z,4.00
2019-05-09T03:57:54.715Z,2.00
2019-05-09T03:58:20.723Z,3.00
2019-05-09T03:58:47.393Z,4.00
2019-05-09T03:59:11.799Z,4.00
2019-05-09T03:59:38.112Z,3.00
2019-05-09T04:00:03.267Z,3.00
2019-05-09T04:00:28.419Z,3.00
2019-05-09T04:00:53.132Z,2.00
2019-05-09T04:01:17.811Z,4.00
2019-05-09T04:01:42.433Z,3.20
2019-05-09T04:02:09.993Z,3.00
2019-05-09T04:02:33.364Z,3.00
2019-05-09T04:02:58.216Z,4.00
2019-05-09T04:03:22.831Z,3.00
2019-05-09T04:03:48.149Z,3.00
2019-05-09T04:04:14.046Z,3.00
2019-05-09T04:04:38.665Z,3.00
2019-05-09T04:05:03.607Z,2.60
2019-05-09T04:05:28.223Z,3.50
2019-05-09T04:05:59.226Z,3.00
2019-05-09T04:06:19.228Z,3.00
2019-05-09T04:06:43.913Z,3.00
2019-05-09T04:07:08.587Z,3.00
2019-05-09T04:07:33.251Z,3.00
2019-05-09T04:07:59.577Z,4.00
2019-05-09T04:08:24.193Z,3.00
2019-05-09T04:08:48.824Z,3.00
2019-05-09T04:09:14.053Z,3.00
2019-05-09T04:09:39.738Z,4.20
2019-05-09T04:10:07.765Z,3.00
2019-05-09T04:10:32.592Z,3.00
2019-05-09T04:10:58.633Z,4.00
2019-05-09T04:11:23.494Z,3.00
2019-05-09T04:11:48.628Z,4.00
2019-05-09T04:12:14.054Z,4.00
2019-05-09T04:12:52.811Z,3.00
2019-05-09T04:13:04.997Z,3.00
2019-05-09T04:13:31.319Z,2.00
2019-05-09T04:14:03.720Z,4.00
2019-05-09T04:14:30.001Z,3.00
2019-05-09T04:14:54.619Z,4.00
2019-05-09T04:15:19.289Z,4.00
2019-05-09T04:15:43.902Z,5.00
2019-05-09T04:16:08.545Z,5.00
2019-05-09T04:16:33.142Z,2.75
2019-05-09T04:16:57.770Z,3.40
2019-05-09T04:17:24.031Z,4.40
2019-05-09T04:17:48.652Z,5.00
2019-05-09T04:18:14.053Z,4.00
2019-05-09T04:18:40.279Z,4.00
2019-05-09T04:19:05.073Z,4.00
2019-05-09T04:19:29.685Z,5.00
2019-05-09T04:19:54.356Z,4.80
2019-05-09T04:20:19.003Z,3.50
2019-05-09T04:20:43.627Z,3.80
2019-05-09T04:21:08.546Z,3.00
2019-05-09T04:21:33.224Z,2.00
2019-05-09T04:21:57.839Z,3.40
2019-05-09T04:22:22.537Z,2.00
2019-05-09T04:22:48.988Z,3.00
2019-05-09T04:23:14.129Z,4.00
2019-05-09T04:23:39.075Z,4.00
2019-05-09T04:24:03.708Z,4.00
2019-05-09T04:24:28.893Z,4.00
2019-05-09T04:24:53.503Z,4.00
2019-05-09T04:25:19.806Z,4.00
2019-05-09T04:25:48.811Z,4.00
2019-05-09T04:26:17.626Z,3.50
2019-05-09T04:26:44.007Z,3.40
2019-05-09T04:27:12.977Z,3.00
2019-05-09T04:27:37.881Z,3.00
2019-05-09T04:28:03.625Z,3.00
2019-05-09T04:28:29.893Z,3.00
2019-05-09T04:28:54.493Z,2.40
2019-05-09T04:29:19.231Z,2.00
2019-05-09T04:29:43.831Z,3.00
2019-05-09T04:30:09.567Z,1.00
2019-05-09T04:30:34.365Z,2.00
2019-05-09T04:30:58.947Z,2.00
2019-05-09T04:31:23.718Z,1.60
2019-05-09T04:31:48.496Z,2.00
2019-05-09T04:32:14.089Z,2.00
2019-05-09T04:32:38.709Z,1.00
2019-05-09T04:33:03.336Z,2.00
2019-05-09T04:33:28.112Z,2.00
2019-05-09T04:33:52.751Z,2.00
2019-05-09T04:34:18.320Z,2.00
2019-05-09T04:34:43.074Z,2.00
2019-05-09T04:35:08.162Z,2.00
2019-05-09T04:35:32.826Z,3.00
2019-05-09T04:35:58.029Z,2.00
2019-05-09T04:36:24.433Z,2.75
2019-05-09T04:36:49.065Z,2.00
2019-05-09T04:37:14.164Z,3.00
2019-05-09T04:37:38.798Z,3.00
2019-05-09T04:38:03.412Z,2.00
2019-05-09T04:38:28.070Z,1.00
2019-05-09T04:38:52.708Z,1.00
2019-05-09T04:39:21.612Z,2.00
2019-05-09T04:39:43.666Z,2.60
2019-05-09T04:40:08.373Z,3.00
2019-05-09T04:40:37.671Z,2.00
2019-05-09T04:40:59.330Z,2.00
2019-05-09T04:41:25.388Z,1.00
2019-05-09T04:41:50.156Z,2.00
2019-05-09T04:42:14.777Z,2.00
2019-05-09T04:42:43.054Z,2.00
2019-05-09T04:43:14.036Z,2.00
2019-05-09T04:43:36.679Z,2.00
2019-05-09T04:44:00.010Z,2.40
2019-05-09T04:44:28.307Z,1.80
2019-05-09T04:44:57.670Z,3.00
2019-05-09T04:45:40.262Z,2.00
2019-05-09T04:46:01.995Z,2.00
2019-05-09T04:46:27.713Z,2.00
2019-05-09T04:46:54.114Z,2.20
2019-05-09T04:47:18.794Z,2.00
2019-05-09T04:47:43.653Z,2.60
2019-05-09T04:48:13.189Z,4.00
2019-05-09T04:48:37.629Z,4.00
2019-05-09T04:49:02.781Z,2.40
2019-05-09T04:49:29.793Z,3.00
2019-05-09T04:49:54.007Z,4.00
2019-05-09T04:50:23.481Z,4.40
2019-05-09T04:50:44.988Z,4.00
2019-05-09T04:51:09.597Z,4.00
2019-05-09T04:51:34.237Z,4.20
2019-05-09T04:51:58.860Z,4.00
2019-05-09T04:52:23.495Z,4.00
2019-05-09T04:52:48.138Z,3.00
2019-05-09T04:53:12.776Z,4.00
2019-05-09T04:53:39.794Z,4.00
2019-05-09T04:54:04.185Z,4.00
2019-05-09T04:54:28.822Z,3.00
2019-05-09T04:54:53.448Z,3.00
2019-05-09T04:55:18.473Z,4.00
2019-05-09T04:55:43.058Z,4.00
2019-05-09T04:56:17.389Z,4.40
2019-05-09T04:56:43.138Z,4.00
2019-05-09T04:57:08.049Z,4.00
2019-05-09T04:57:32.720Z,4.00
2019-05-09T04:58:00.123Z,4.00
2019-05-09T04:58:23.686Z,4.00
2019-05-09T04:58:48.376Z,5.00
2019-05-09T04:59:13.022Z,5.00
2019-05-09T04:59:37.636Z,4.40
2019-05-09T05:00:02.328Z,5.00
2019-05-09T05:00:28.592Z,4.00
2019-05-09T05:01:10.094Z,4.00
2019-05-09T05:01:38.761Z,4.00
2019-05-09T05:02:04.365Z,5.00
2019-05-09T05:02:43.010Z,4.80
2019-05-09T05:03:08.022Z,4.00
2019-05-09T05:03:33.122Z,6.00
2019-05-09T05:03:58.508Z,5.00
2019-05-09T05:04:24.412Z,5.00
2019-05-09T05:04:49.010Z,5.00
2019-05-09T05:05:14.468Z,5.00
2019-05-09T05:05:40.134Z,5.00
2019-05-09T05:06:04.856Z,4.40
2019-05-09T05:06:29.535Z,3.00
2019-05-09T05:06:54.127Z,4.00
2019-05-09T05:07:18.914Z,6.00
2019-05-09T05:07:43.550Z,5.00
2019-05-09T05:08:08.181Z,5.00
2019-05-09T05:08:32.949Z,5.00
2019-05-09T05:08:58.623Z,5.00
2019-05-09T05:09:23.397Z,5.25
2019-05-09T05:09:48.477Z,6.00
2019-05-09T05:10:13.224Z,4.00
2019-05-09T05:10:37.787Z,4.00
2019-05-09T05:11:02.495Z,4.60
2019-05-09T05:11:27.912Z,4.00
2019-05-09T05:11:52.816Z,5.00
2019-05-09T05:12:18.546Z,5.00
2019-05-09T05:12:43.548Z,4.00
2019-05-09T05:13:22.175Z,4.00
2019-05-09T05:13:34.468Z,5.00
2019-05-09T05:13:59.094Z,5.00
2019-05-09T05:14:23.726Z,5.00
2019-05-09T05:14:48.357Z,4.00
2019-05-09T05:15:12.966Z,5.00
2019-05-09T05:15:37.825Z,5.00
2019-05-09T05:16:02.575Z,4.00
2019-05-09T05:16:27.446Z,3.00
2019-05-09T05:16:54.874Z,5.00
2019-05-09T05:17:19.111Z,5.00
2019-05-09T05:17:43.688Z,4.00
2019-05-09T05:18:08.587Z,5.00
2019-05-09T05:18:33.256Z,5.00
2019-05-09T05:18:58.481Z,3.00
2019-05-09T05:19:24.120Z,4.75
2019-05-09T05:19:49.184Z,5.00
2019-05-09T05:20:18.410Z,4.50
2019-05-09T05:20:42.372Z,4.00
2019-05-09T05:21:07.788Z,5.00
2019-05-09T05:21:32.613Z,5.00
2019-05-09T05:21:58.906Z,5.40
2019-05-09T05:22:25.136Z,6.00
2019-05-09T05:22:59.982Z,5.00
2019-05-09T05:23:42.506Z,5.00
2019-05-09T05:24:11.612Z,5.00
2019-05-09T05:24:38.228Z,4.00
2019-05-09T05:25:04.113Z,4.20
2019-05-09T05:25:28.729Z,4.75
2019-05-09T05:25:53.371Z,4.00
2019-05-09T05:26:19.471Z,4.20
2019-05-09T05:26:44.144Z,5.00
2019-05-09T05:27:08.723Z,5.00
2019-05-09T05:27:33.404Z,4.00
2019-05-09T05:27:58.225Z,5.00
2019-05-09T05:28:22.926Z,4.40
2019-05-09T05:29:15.130Z,3.00
2019-05-09T05:29:39.753Z,4.00
2019-05-09T05:30:07.492Z,4.00
2019-05-09T05:30:32.378Z,4.00
2019-05-09T05:30:58.227Z,4.00
2019-05-09T05:31:22.933Z,4.00
2019-05-09T05:31:47.889Z,4.00
2019-05-09T05:32:14.153Z,5.00
2019-05-09T05:32:40.475Z,4.00
2019-05-09T05:33:08.110Z,5.60
2019-05-09T05:33:53.927Z,4.00
2019-05-09T05:34:20.516Z,4.00
2019-05-09T05:35:02.919Z,4.00
2019-05-09T05:35:29.175Z,3.25
2019-05-09T05:35:57.396Z,3.00
2019-05-09T05:36:23.432Z,3.00
2019-05-09T05:36:48.087Z,4.00
2019-05-09T05:37:12.699Z,3.60
2019-05-09T05:37:38.726Z,3.00
2019-05-09T05:38:03.525Z,4.00
2019-05-09T05:38:28.167Z,4.00
2019-05-09T05:38:52.946Z,4.00
2019-05-09T05:39:17.904Z,3.00
2019-05-09T05:39:42.721Z,4.00
2019-05-09T05:40:07.909Z,4.00
2019-05-09T05:40:33.871Z,3.00
2019-05-09T05:40:58.963Z,3.00
2019-05-09T05:41:23.573Z,3.00
2019-05-09T05:41:48.519Z,2.00
2019-05-09T05:42:13.339Z,3.00
2019-05-09T05:42:38.815Z,2.00
2019-05-09T05:43:03.873Z,3.00
2019-05-09T05:43:40.567Z,3.00
2019-05-09T05:43:54.816Z,3.40
2019-05-09T05:44:19.500Z,3.00
2019-05-09T05:44:44.101Z,2.00
2019-05-09T05:45:08.709Z,2.00
2019-05-09T05:45:37.377Z,3.00
2019-05-09T05:46:07.573Z,3.00
2019-05-09T05:46:33.452Z,3.00
2019-05-09T05:47:02.397Z,3.00
2019-05-09T05:47:29.346Z,5.00
2019-05-09T05:47:57.607Z,3.00
2019-05-09T05:48:23.768Z,4.00